sensor_id;sensor_type;location;lat;lon;timestamp;temperature;humidity
13589;DHT22;6865;52.552;13.434;2022-08-06T00:02:33;16.70;99.90
13589;DHT22;6865;52.552;13.434;2022-08-06T00:05:02;16.60;99.90
13589;DHT22;6865;52.552;13.434;2022-08-06T00:07:32;16.50;99.90
13589;DHT22;6865;52.552;13.434;2022-08-06T00:10:18;16.50;99.90
13589;DHT22;6865;52.552;13.434;2022-08-06T00:12:55;16.30;99.90
13589;DHT22;6865;52.552;13.434;2022-08-06T00:15:24;16.30;99.90
13589;DHT22;6865;52.552;13.434;2022-08-06T00:18:10;16.30;99.90
13589;DHT22;6865;52.552;13.434;2022-08-06T00:20:38;16.10;99.90
13589;DHT22;6865;52.552;13.434;2022-08-06T00:23:09;16.30;99.90
13589;DHT22;6865;52.552;13.434;2022-08-06T00:25:43;16.30;99.90
13589;DHT22;6865;52.552;13.434;2022-08-06T00:28:22;16.20;99.90
13589;DHT22;6865;52.552;13.434;2022-08-06T00:30:58;16.20;99.90
13589;DHT22;6865;52.552;13.434;2022-08-06T00:33:31;16.10;99.90
13589;DHT22;6865;52.552;13.434;2022-08-06T00:36:18;16.20;99.90
13589;DHT22;6865;52.552;13.434;2022-08-06T00:38:51;16.10;99.90
13589;DHT22;6865;52.552;13.434;2022-08-06T00:41:18;16.10;99.90
13589;DHT22;6865;52.552;13.434;2022-08-06T00:43:48;16.10;99.90
13589;DHT22;6865;52.552;13.434;2022-08-06T00:46:15;16.10;99.90
13589;DHT22;6865;52.552;13.434;2022-08-06T00:48:43;16.00;99.90
13589;DHT22;6865;52.552;13.434;2022-08-06T00:51:21;16.00;99.90
13589;DHT22;6865;52.552;13.434;2022-08-06T00:53:48;15.90;99.90
13589;DHT22;6865;52.552;13.434;2022-08-06T00:56:20;15.90;99.90
13589;DHT22;6865;52.552;13.434;2022-08-06T00:58:54;15.90;99.90
13589;DHT22;6865;52.552;13.434;2022-08-06T01:01:29;15.90;99.90
13589;DHT22;6865;52.552;13.434;2022-08-06T01:04:11;15.90;99.90
13589;DHT22;6865;52.552;13.434;2022-08-06T01:06:41;15.80;99.90
13589;DHT22;6865;52.552;13.434;2022-08-06T01:09:23;15.80;99.90
13589;DHT22;6865;52.552;13.434;2022-08-06T01:11:50;15.70;99.90
13589;DHT22;6865;52.552;13.434;2022-08-06T01:14:18;15.50;99.90
13589;DHT22;6865;52.552;13.434;2022-08-06T01:17:09;15.60;99.90
13589;DHT22;6865;52.552;13.434;2022-08-06T01:20:13;15.60;99.90
13589;DHT22;6865;52.552;13.434;2022-08-06T01:23:44;15.50;99.90
13589;DHT22;6865;52.552;13.434;2022-08-06T01:26:46;15.50;99.90
13589;DHT22;6865;52.552;13.434;2022-08-06T01:29:25;15.40;99.90
13589;DHT22;6865;52.552;13.434;2022-08-06T01:32:03;15.40;99.90
13589;DHT22;6865;52.552;13.434;2022-08-06T01:34:36;15.40;99.90
13589;DHT22;6865;52.552;13.434;2022-08-06T01:37:21;15.40;99.90
13589;DHT22;6865;52.552;13.434;2022-08-06T01:39:58;15.30;99.90
13589;DHT22;6865;52.552;13.434;2022-08-06T01:42:31;15.30;99.90
13589;DHT22;6865;52.552;13.434;2022-08-06T01:45:03;15.20;99.90
13589;DHT22;6865;52.552;13.434;2022-08-06T01:47:32;13.10;99.90
13589;DHT22;6865;52.552;13.434;2022-08-06T01:50:25;14.70;99.90
13589;DHT22;6865;52.552;13.434;2022-08-06T01:52:56;15.20;99.90
13589;DHT22;6865;52.552;13.434;2022-08-06T01:55:29;15.20;99.90
13589;DHT22;6865;52.552;13.434;2022-08-06T01:58:21;15.10;99.90
13589;DHT22;6865;52.552;13.434;2022-08-06T02:00:57;15.10;99.90
13589;DHT22;6865;52.552;13.434;2022-08-06T02:03:37;12.70;99.90
13589;DHT22;6865;52.552;13.434;2022-08-06T02:06:32;15.00;99.90
13589;DHT22;6865;52.552;13.434;2022-08-06T02:09:03;15.00;99.90
13589;DHT22;6865;52.552;13.434;2022-08-06T02:12:19;14.90;99.90
13589;DHT22;6865;52.552;13.434;2022-08-06T02:14:59;14.90;99.90
13589;DHT22;6865;52.552;13.434;2022-08-06T02:17:30;14.90;99.90
13589;DHT22;6865;52.552;13.434;2022-08-06T02:20:20;14.90;99.90
13589;DHT22;6865;52.552;13.434;2022-08-06T02:23:06;14.80;99.90
13589;DHT22;6865;52.552;13.434;2022-08-06T02:25:37;14.80;99.90
13589;DHT22;6865;52.552;13.434;2022-08-06T02:28:07;14.70;99.90
13589;DHT22;6865;52.552;13.434;2022-08-06T02:30:38;14.70;99.90
13589;DHT22;6865;52.552;13.434;2022-08-06T02:33:09;14.60;99.90
13589;DHT22;6865;52.552;13.434;2022-08-06T02:35:40;14.60;99.90
13589;DHT22;6865;52.552;13.434;2022-08-06T02:38:24;14.20;99.90
13589;DHT22;6865;52.552;13.434;2022-08-06T02:41:01;14.60;99.90
13589;DHT22;6865;52.552;13.434;2022-08-06T02:43:35;14.50;99.90
13589;DHT22;6865;52.552;13.434;2022-08-06T02:46:45;14.60;99.90
13589;DHT22;6865;52.552;13.434;2022-08-06T02:49:22;14.50;99.90
13589;DHT22;6865;52.552;13.434;2022-08-06T02:52:00;14.50;99.90
13589;DHT22;6865;52.552;13.434;2022-08-06T02:54:51;14.40;99.90
13589;DHT22;6865;52.552;13.434;2022-08-06T02:57:28;14.40;99.90
13589;DHT22;6865;52.552;13.434;2022-08-06T03:00:14;14.40;99.90
13589;DHT22;6865;52.552;13.434;2022-08-06T03:02:44;14.40;99.90
13589;DHT22;6865;52.552;13.434;2022-08-06T03:05:18;15.90;99.90
13589;DHT22;6865;52.552;13.434;2022-08-06T03:08:06;14.40;99.90
13589;DHT22;6865;52.552;13.434;2022-08-06T03:10:36;14.30;99.90
13589;DHT22;6865;52.552;13.434;2022-08-06T03:13:04;14.30;99.90
13589;DHT22;6865;52.552;13.434;2022-08-06T03:15:37;14.10;99.90
13589;DHT22;6865;52.552;13.434;2022-08-06T03:18:26;14.30;99.90
13589;DHT22;6865;52.552;13.434;2022-08-06T03:20:55;14.20;99.90
13589;DHT22;6865;52.552;13.434;2022-08-06T03:23:23;14.20;99.90
13589;DHT22;6865;52.552;13.434;2022-08-06T03:25:54;14.20;99.90
13589;DHT22;6865;52.552;13.434;2022-08-06T03:28:22;14.20;99.90
13589;DHT22;6865;52.552;13.434;2022-08-06T03:30:50;14.20;99.90
13589;DHT22;6865;52.552;13.434;2022-08-06T03:33:22;14.20;99.90
13589;DHT22;6865;52.552;13.434;2022-08-06T03:36:09;14.30;99.90
13589;DHT22;6865;52.552;13.434;2022-08-06T03:38:45;13.80;99.90
13589;DHT22;6865;52.552;13.434;2022-08-06T03:41:19;14.60;99.90
13589;DHT22;6865;52.552;13.434;2022-08-06T03:43:54;14.10;99.90
13589;DHT22;6865;52.552;13.434;2022-08-06T03:46:43;14.10;99.90
13589;DHT22;6865;52.552;13.434;2022-08-06T03:49:16;14.10;99.90
13589;DHT22;6865;52.552;13.434;2022-08-06T03:51:53;14.10;99.90
13589;DHT22;6865;52.552;13.434;2022-08-06T03:54:26;14.00;99.90
13589;DHT22;6865;52.552;13.434;2022-08-06T03:57:05;14.00;99.90
13589;DHT22;6865;52.552;13.434;2022-08-06T03:59:37;14.00;99.90
13589;DHT22;6865;52.552;13.434;2022-08-06T04:02:26;14.00;99.90
13589;DHT22;6865;52.552;13.434;2022-08-06T04:05:18;14.00;99.90
13589;DHT22;6865;52.552;13.434;2022-08-06T04:07:50;14.00;99.90
13589;DHT22;6865;52.552;13.434;2022-08-06T04:10:24;14.10;99.90
13589;DHT22;6865;52.552;13.434;2022-08-06T04:13:03;14.10;99.90
13589;DHT22;6865;52.552;13.434;2022-08-06T04:15:51;14.10;99.90
13589;DHT22;6865;52.552;13.434;2022-08-06T04:18:25;14.10;99.90
13589;DHT22;6865;52.552;13.434;2022-08-06T04:20:56;14.10;99.90
13589;DHT22;6865;52.552;13.434;2022-08-06T04:23:43;14.00;99.90
13589;DHT22;6865;52.552;13.434;2022-08-06T04:26:13;14.20;99.90
13589;DHT22;6865;52.552;13.434;2022-08-06T04:28:43;14.20;99.90
13589;DHT22;6865;52.552;13.434;2022-08-06T04:31:25;14.20;99.90
13589;DHT22;6865;52.552;13.434;2022-08-06T04:34:15;14.20;99.90
13589;DHT22;6865;52.552;13.434;2022-08-06T04:36:44;14.30;99.90
13589;DHT22;6865;52.552;13.434;2022-08-06T04:39:20;14.30;99.90
13589;DHT22;6865;52.552;13.434;2022-08-06T04:42:03;14.30;99.90
13589;DHT22;6865;52.552;13.434;2022-08-06T04:44:31;14.40;99.90
13589;DHT22;6865;52.552;13.434;2022-08-06T04:46:59;14.40;99.90
13589;DHT22;6865;52.552;13.434;2022-08-06T04:49:26;14.40;99.90
13589;DHT22;6865;52.552;13.434;2022-08-06T04:52:24;14.40;99.90
13589;DHT22;6865;52.552;13.434;2022-08-06T04:55:11;14.50;99.90
13589;DHT22;6865;52.552;13.434;2022-08-06T04:57:51;14.50;99.90
13589;DHT22;6865;52.552;13.434;2022-08-06T05:00:32;14.40;99.90
13589;DHT22;6865;52.552;13.434;2022-08-06T05:03:19;14.50;99.90
13589;DHT22;6865;52.552;13.434;2022-08-06T05:06:16;14.50;99.90
13589;DHT22;6865;52.552;13.434;2022-08-06T05:08:49;14.60;99.90
13589;DHT22;6865;52.552;13.434;2022-08-06T05:11:28;14.50;99.90
13589;DHT22;6865;52.552;13.434;2022-08-06T05:13:58;14.40;99.90
13589;DHT22;6865;52.552;13.434;2022-08-06T05:16:27;14.40;99.90
13589;DHT22;6865;52.552;13.434;2022-08-06T05:19:02;14.40;99.90
13589;DHT22;6865;52.552;13.434;2022-08-06T05:21:49;14.50;99.90
13589;DHT22;6865;52.552;13.434;2022-08-06T05:24:38;14.50;99.90
13589;DHT22;6865;52.552;13.434;2022-08-06T05:27:25;14.40;99.90
13589;DHT22;6865;52.552;13.434;2022-08-06T05:30:12;14.30;99.90
13589;DHT22;6865;52.552;13.434;2022-08-06T05:32:47;14.30;99.90
13589;DHT22;6865;52.552;13.434;2022-08-06T05:35:21;14.30;99.90
13589;DHT22;6865;52.552;13.434;2022-08-06T05:38:06;14.30;99.90
13589;DHT22;6865;52.552;13.434;2022-08-06T05:40:37;14.30;99.90
13589;DHT22;6865;52.552;13.434;2022-08-06T05:43:23;14.40;99.90
13589;DHT22;6865;52.552;13.434;2022-08-06T05:45:54;14.40;99.90
13589;DHT22;6865;52.552;13.434;2022-08-06T05:48:23;14.50;99.90
13589;DHT22;6865;52.552;13.434;2022-08-06T05:51:03;14.50;99.90
13589;DHT22;6865;52.552;13.434;2022-08-06T05:53:40;14.60;99.90
13589;DHT22;6865;52.552;13.434;2022-08-06T05:56:31;14.70;99.90
13589;DHT22;6865;52.552;13.434;2022-08-06T05:59:10;14.80;99.90
13589;DHT22;6865;52.552;13.434;2022-08-06T06:01:58;15.00;99.90
13589;DHT22;6865;52.552;13.434;2022-08-06T06:04:27;15.20;99.90
13589;DHT22;6865;52.552;13.434;2022-08-06T06:07:00;15.30;99.90
13589;DHT22;6865;52.552;13.434;2022-08-06T06:09:31;15.40;99.90
13589;DHT22;6865;52.552;13.434;2022-08-06T06:12:18;15.50;99.90
13589;DHT22;6865;52.552;13.434;2022-08-06T06:14:47;15.50;99.90
13589;DHT22;6865;52.552;13.434;2022-08-06T06:23:31;15.50;99.90
13589;DHT22;6865;52.552;13.434;2022-08-06T06:26:21;15.50;99.90
13589;DHT22;6865;52.552;13.434;2022-08-06T06:37:53;15.80;99.90
13589;DHT22;6865;52.552;13.434;2022-08-06T06:40:39;15.90;99.90
13589;DHT22;6865;52.552;13.434;2022-08-06T06:43:55;16.00;99.90
13589;DHT22;6865;52.552;13.434;2022-08-06T06:46:33;16.10;99.90
13589;DHT22;6865;52.552;13.434;2022-08-06T06:49:36;16.20;99.90
13589;DHT22;6865;52.552;13.434;2022-08-06T06:52:31;16.30;99.90
13589;DHT22;6865;52.552;13.434;2022-08-06T06:55:09;16.40;99.90
13589;DHT22;6865;52.552;13.434;2022-08-06T06:57:50;16.50;99.90
13589;DHT22;6865;52.552;13.434;2022-08-06T07:00:18;16.70;99.90
13589;DHT22;6865;52.552;13.434;2022-08-06T07:03:05;16.70;99.90
13589;DHT22;6865;52.552;13.434;2022-08-06T07:05:36;16.70;99.90
13589;DHT22;6865;52.552;13.434;2022-08-06T07:08:26;16.90;99.90
13589;DHT22;6865;52.552;13.434;2022-08-06T07:11:04;17.00;99.90
13589;DHT22;6865;52.552;13.434;2022-08-06T07:13:33;17.20;99.90
13589;DHT22;6865;52.552;13.434;2022-08-06T07:16:19;17.30;99.90
13589;DHT22;6865;52.552;13.434;2022-08-06T07:19:03;17.50;99.90
13589;DHT22;6865;52.552;13.434;2022-08-06T07:21:31;17.30;99.90
13589;DHT22;6865;52.552;13.434;2022-08-06T07:23:58;18.70;99.90
13589;DHT22;6865;52.552;13.434;2022-08-06T07:26:35;17.70;99.90
13589;DHT22;6865;52.552;13.434;2022-08-06T07:29:16;17.40;99.90
13589;DHT22;6865;52.552;13.434;2022-08-06T07:32:04;17.70;99.90
13589;DHT22;6865;52.552;13.434;2022-08-06T07:34:33;17.80;99.90
13589;DHT22;6865;52.552;13.434;2022-08-06T07:37:00;18.00;99.90
13589;DHT22;6865;52.552;13.434;2022-08-06T07:39:37;18.10;99.90
13589;DHT22;6865;52.552;13.434;2022-08-06T07:42:12;18.30;99.90
13589;DHT22;6865;52.552;13.434;2022-08-06T07:44:43;18.50;99.90
13589;DHT22;6865;52.552;13.434;2022-08-06T07:47:28;18.50;99.90
13589;DHT22;6865;52.552;13.434;2022-08-06T07:50:15;18.50;99.90
13589;DHT22;6865;52.552;13.434;2022-08-06T07:52:51;18.60;99.90
13589;DHT22;6865;52.552;13.434;2022-08-06T07:55:20;18.70;99.90
13589;DHT22;6865;52.552;13.434;2022-08-06T07:57:53;19.10;99.90
13589;DHT22;6865;52.552;13.434;2022-08-06T08:00:25;19.50;99.90
13589;DHT22;6865;52.552;13.434;2022-08-06T08:02:55;19.40;99.90
13589;DHT22;6865;52.552;13.434;2022-08-06T08:06:04;19.50;99.90
13589;DHT22;6865;52.552;13.434;2022-08-06T08:09:08;19.40;99.90
13589;DHT22;6865;52.552;13.434;2022-08-06T08:11:38;19.40;99.90
13589;DHT22;6865;52.552;13.434;2022-08-06T08:14:27;19.40;99.50
13589;DHT22;6865;52.552;13.434;2022-08-06T08:16:54;19.10;98.70
13589;DHT22;6865;52.552;13.434;2022-08-06T08:19:28;18.90;99.20
13589;DHT22;6865;52.552;13.434;2022-08-06T08:22:16;18.80;99.90
13589;DHT22;6865;52.552;13.434;2022-08-06T08:24:49;19.00;99.90
13589;DHT22;6865;52.552;13.434;2022-08-06T08:27:20;19.10;99.90
13589;DHT22;6865;52.552;13.434;2022-08-06T08:29:51;19.10;99.90
13589;DHT22;6865;52.552;13.434;2022-08-06T08:32:22;19.10;99.00
13589;DHT22;6865;52.552;13.434;2022-08-06T08:34:50;17.10;98.40
13589;DHT22;6865;52.552;13.434;2022-08-06T08:37:19;19.40;98.20
13589;DHT22;6865;52.552;13.434;2022-08-06T08:39:46;19.50;97.90
13589;DHT22;6865;52.552;13.434;2022-08-06T08:42:28;19.60;97.60
13589;DHT22;6865;52.552;13.434;2022-08-06T08:44:59;19.70;95.60
13589;DHT22;6865;52.552;13.434;2022-08-06T08:47:29;19.70;95.80
13589;DHT22;6865;52.552;13.434;2022-08-06T08:50:19;19.60;96.00
13589;DHT22;6865;52.552;13.434;2022-08-06T08:52:49;19.90;96.40
13589;DHT22;6865;52.552;13.434;2022-08-06T08:55:19;20.10;95.80
13589;DHT22;6865;52.552;13.434;2022-08-06T08:58:08;20.00;95.50
13589;DHT22;6865;52.552;13.434;2022-08-06T09:00:55;20.00;95.60
13589;DHT22;6865;52.552;13.434;2022-08-06T09:03:22;20.00;95.40
13589;DHT22;6865;52.552;13.434;2022-08-06T09:05:49;19.80;94.70
13589;DHT22;6865;52.552;13.434;2022-08-06T09:08:19;19.90;94.10
13589;DHT22;6865;52.552;13.434;2022-08-06T09:11:06;20.00;94.10
13589;DHT22;6865;52.552;13.434;2022-08-06T09:13:46;20.10;93.40
13589;DHT22;6865;52.552;13.434;2022-08-06T09:16:17;20.20;92.80
13589;DHT22;6865;52.552;13.434;2022-08-06T09:19:01;20.00;92.50
13589;DHT22;6865;52.552;13.434;2022-08-06T09:21:32;20.20;92.90
13589;DHT22;6865;52.552;13.434;2022-08-06T09:24:00;20.40;92.80
13589;DHT22;6865;52.552;13.434;2022-08-06T09:26:30;20.40;92.20
13589;DHT22;6865;52.552;13.434;2022-08-06T09:29:22;20.60;91.90
13589;DHT22;6865;52.552;13.434;2022-08-06T09:32:02;20.90;91.80
13589;DHT22;6865;52.552;13.434;2022-08-06T09:34:40;21.00;91.00
13589;DHT22;6865;52.552;13.434;2022-08-06T09:37:26;21.10;90.00
13589;DHT22;6865;52.552;13.434;2022-08-06T09:40:15;21.10;90.30
13589;DHT22;6865;52.552;13.434;2022-08-06T09:42:45;21.00;89.70
13589;DHT22;6865;52.552;13.434;2022-08-06T09:45:15;20.80;90.00
13589;DHT22;6865;52.552;13.434;2022-08-06T09:47:48;20.40;90.40
13589;DHT22;6865;52.552;13.434;2022-08-06T09:50:42;20.40;90.50
13589;DHT22;6865;52.552;13.434;2022-08-06T09:53:11;20.50;90.40
13589;DHT22;6865;52.552;13.434;2022-08-06T09:55:41;20.70;90.50
13589;DHT22;6865;52.552;13.434;2022-08-06T09:58:08;20.90;87.20
13589;DHT22;6865;52.552;13.434;2022-08-06T10:00:38;21.00;87.60
13589;DHT22;6865;52.552;13.434;2022-08-06T10:03:07;19.20;85.90
13589;DHT22;6865;52.552;13.434;2022-08-06T10:06:06;21.30;85.50
13589;DHT22;6865;52.552;13.434;2022-08-06T10:08:41;21.20;85.60
13589;DHT22;6865;52.552;13.434;2022-08-06T10:11:08;21.20;85.90
13589;DHT22;6865;52.552;13.434;2022-08-06T10:13:38;21.50;85.10
13589;DHT22;6865;52.552;13.434;2022-08-06T10:16:19;21.70;84.00
13589;DHT22;6865;52.552;13.434;2022-08-06T10:18:48;22.10;84.10
13589;DHT22;6865;52.552;13.434;2022-08-06T10:21:29;22.00;83.70
13589;DHT22;6865;52.552;13.434;2022-08-06T10:24:09;21.70;84.80
13589;DHT22;6865;52.552;13.434;2022-08-06T10:26:35;21.40;85.90
13589;DHT22;6865;52.552;13.434;2022-08-06T10:29:05;21.10;86.50
13589;DHT22;6865;52.552;13.434;2022-08-06T10:31:35;20.80;87.40
13589;DHT22;6865;52.552;13.434;2022-08-06T10:34:20;20.70;87.90
13589;DHT22;6865;52.552;13.434;2022-08-06T10:37:02;20.80;86.30
13589;DHT22;6865;52.552;13.434;2022-08-06T10:39:55;20.90;82.50
13589;DHT22;6865;52.552;13.434;2022-08-06T10:42:35;21.80;83.10
13589;DHT22;6865;52.552;13.434;2022-08-06T10:45:08;21.20;83.90
13589;DHT22;6865;52.552;13.434;2022-08-06T10:47:44;21.30;82.50
13589;DHT22;6865;52.552;13.434;2022-08-06T10:50:32;21.30;81.70
13589;DHT22;6865;52.552;13.434;2022-08-06T10:53:14;21.20;81.50
13589;DHT22;6865;52.552;13.434;2022-08-06T10:56:06;21.10;82.00
13589;DHT22;6865;52.552;13.434;2022-08-06T10:58:36;21.20;82.50
13589;DHT22;6865;52.552;13.434;2022-08-06T11:01:07;21.40;80.60
13589;DHT22;6865;52.552;13.434;2022-08-06T11:09:37;22.00;79.20
13589;DHT22;6865;52.552;13.434;2022-08-06T11:12:49;22.10;77.50
13589;DHT22;6865;52.552;13.434;2022-08-06T11:15:18;22.10;77.50
13589;DHT22;6865;52.552;13.434;2022-08-06T11:17:51;22.10;77.10
13589;DHT22;6865;52.552;13.434;2022-08-06T11:22:59;22.20;75.80
13589;DHT22;6865;52.552;13.434;2022-08-06T11:25:46;22.10;76.10
13589;DHT22;6865;52.552;13.434;2022-08-06T11:28:15;22.00;76.60
13589;DHT22;6865;52.552;13.434;2022-08-06T11:30:44;22.30;75.50
13589;DHT22;6865;52.552;13.434;2022-08-06T11:33:17;22.60;74.10
13589;DHT22;6865;52.552;13.434;2022-08-06T11:35:46;22.80;74.20
13589;DHT22;6865;52.552;13.434;2022-08-06T11:41:23;23.10;72.70
13589;DHT22;6865;52.552;13.434;2022-08-06T11:44:11;23.10;72.90
13589;DHT22;6865;52.552;13.434;2022-08-06T11:46:44;23.10;73.70
13589;DHT22;6865;52.552;13.434;2022-08-06T11:52:41;23.10;69.80
13589;DHT22;6865;52.552;13.434;2022-08-06T11:55:14;23.10;69.50
13589;DHT22;6865;52.552;13.434;2022-08-06T12:01:01;23.00;70.80
13589;DHT22;6865;52.552;13.434;2022-08-06T12:03:48;23.00;71.20
13589;DHT22;6865;52.552;13.434;2022-08-06T12:06:19;22.90;71.20
13589;DHT22;6865;52.552;13.434;2022-08-06T12:09:06;22.90;69.60
13589;DHT22;6865;52.552;13.434;2022-08-06T12:11:36;22.90;65.80
13589;DHT22;6865;52.552;13.434;2022-08-06T12:14:05;22.80;66.40
13589;DHT22;6865;52.552;13.434;2022-08-06T12:16:52;22.90;66.60
13589;DHT22;6865;52.552;13.434;2022-08-06T12:19:24;22.80;65.80
13589;DHT22;6865;52.552;13.434;2022-08-06T12:21:52;22.60;67.90
13589;DHT22;6865;52.552;13.434;2022-08-06T12:24:26;22.00;68.40
13589;DHT22;6865;52.552;13.434;2022-08-06T12:27:14;22.10;69.00
13589;DHT22;6865;52.552;13.434;2022-08-06T12:29:42;21.90;68.70
13589;DHT22;6865;52.552;13.434;2022-08-06T12:32:22;21.90;68.00
13589;DHT22;6865;52.552;13.434;2022-08-06T12:34:52;22.00;68.60
13589;DHT22;6865;52.552;13.434;2022-08-06T12:37:38;22.10;68.30
13589;DHT22;6865;52.552;13.434;2022-08-06T12:40:16;22.30;67.60
13589;DHT22;6865;52.552;13.434;2022-08-06T12:45:41;22.90;66.50
13589;DHT22;6865;52.552;13.434;2022-08-06T12:48:28;23.00;66.30
13589;DHT22;6865;52.552;13.434;2022-08-06T12:51:07;23.10;66.10
13589;DHT22;6865;52.552;13.434;2022-08-06T12:53:55;23.10;64.90
13589;DHT22;6865;52.552;13.434;2022-08-06T12:56:25;23.20;64.10
13589;DHT22;6865;52.552;13.434;2022-08-06T12:59:00;23.10;62.10
13589;DHT22;6865;52.552;13.434;2022-08-06T13:01:29;22.90;63.40
13589;DHT22;6865;52.552;13.434;2022-08-06T13:04:16;22.70;63.20
13589;DHT22;6865;52.552;13.434;2022-08-06T13:06:45;22.30;64.70
13589;DHT22;6865;52.552;13.434;2022-08-06T13:09:15;22.10;65.80
13589;DHT22;6865;52.552;13.434;2022-08-06T13:11:43;22.00;66.70
13589;DHT22;6865;52.552;13.434;2022-08-06T13:14:18;21.90;66.90
13589;DHT22;6865;52.552;13.434;2022-08-06T13:16:48;21.80;68.10
13589;DHT22;6865;52.552;13.434;2022-08-06T13:19:23;21.90;67.00
13589;DHT22;6865;52.552;13.434;2022-08-06T13:22:05;22.00;65.40
13589;DHT22;6865;52.552;13.434;2022-08-06T13:24:34;22.40;64.30
13589;DHT22;6865;52.552;13.434;2022-08-06T13:27:01;22.40;63.40
13589;DHT22;6865;52.552;13.434;2022-08-06T13:29:34;22.50;62.70
13589;DHT22;6865;52.552;13.434;2022-08-06T13:32:24;22.60;63.20
13589;DHT22;6865;52.552;13.434;2022-08-06T13:35:05;22.50;63.80
13589;DHT22;6865;52.552;13.434;2022-08-06T13:40:42;22.20;64.50
13589;DHT22;6865;52.552;13.434;2022-08-06T13:43:43;22.10;64.70
13589;DHT22;6865;52.552;13.434;2022-08-06T13:46:25;22.00;65.40
13589;DHT22;6865;52.552;13.434;2022-08-06T13:48:56;21.90;65.80
13589;DHT22;6865;52.552;13.434;2022-08-06T13:51:24;21.90;66.70
13589;DHT22;6865;52.552;13.434;2022-08-06T13:53:54;22.00;65.90
13589;DHT22;6865;52.552;13.434;2022-08-06T13:56:23;22.10;65.40
13589;DHT22;6865;52.552;13.434;2022-08-06T13:58:58;21.00;64.00
13589;DHT22;6865;52.552;13.434;2022-08-06T14:01:26;22.20;64.60
13589;DHT22;6865;52.552;13.434;2022-08-06T14:04:12;22.20;64.40
13589;DHT22;6865;52.552;13.434;2022-08-06T14:06:40;22.10;64.40
13589;DHT22;6865;52.552;13.434;2022-08-06T14:09:11;21.80;64.40
13589;DHT22;6865;52.552;13.434;2022-08-06T14:11:54;21.90;65.10
13589;DHT22;6865;52.552;13.434;2022-08-06T14:14:24;21.80;65.60
13589;DHT22;6865;52.552;13.434;2022-08-06T14:16:55;21.90;65.20
13589;DHT22;6865;52.552;13.434;2022-08-06T14:19:22;22.00;65.60
13589;DHT22;6865;52.552;13.434;2022-08-06T14:22:09;22.00;65.40
13589;DHT22;6865;52.552;13.434;2022-08-06T14:24:36;22.20;65.00
13589;DHT22;6865;52.552;13.434;2022-08-06T14:27:06;22.30;64.00
13589;DHT22;6865;52.552;13.434;2022-08-06T14:29:44;22.20;64.30
13589;DHT22;6865;52.552;13.434;2022-08-06T14:32:31;22.10;64.40
13589;DHT22;6865;52.552;13.434;2022-08-06T14:34:58;22.10;64.50
13589;DHT22;6865;52.552;13.434;2022-08-06T14:37:31;22.10;63.40
13589;DHT22;6865;52.552;13.434;2022-08-06T14:40:18;22.10;63.30
13589;DHT22;6865;52.552;13.434;2022-08-06T14:43:24;22.20;63.70
13589;DHT22;6865;52.552;13.434;2022-08-06T14:46:23;22.20;64.20
13589;DHT22;6865;52.552;13.434;2022-08-06T14:48:53;24.40;64.50
13589;DHT22;6865;52.552;13.434;2022-08-06T14:51:24;22.10;64.00
13589;DHT22;6865;52.552;13.434;2022-08-06T14:54:11;21.90;64.50
13589;DHT22;6865;52.552;13.434;2022-08-06T14:56:40;21.70;65.00
13589;DHT22;6865;52.552;13.434;2022-08-06T14:59:11;21.60;65.50
13589;DHT22;6865;52.552;13.434;2022-08-06T15:01:38;21.50;65.80
13589;DHT22;6865;52.552;13.434;2022-08-06T15:04:05;21.40;66.00
13589;DHT22;6865;52.552;13.434;2022-08-06T15:06:51;21.70;66.30
13589;DHT22;6865;52.552;13.434;2022-08-06T15:09:20;21.80;66.50
13589;DHT22;6865;52.552;13.434;2022-08-06T15:12:07;21.90;66.20
13589;DHT22;6865;52.552;13.434;2022-08-06T15:14:37;21.90;65.30
13589;DHT22;6865;52.552;13.434;2022-08-06T15:17:09;21.90;66.30
13589;DHT22;6865;52.552;13.434;2022-08-06T15:19:56;21.90;65.40
13589;DHT22;6865;52.552;13.434;2022-08-06T15:22:22;22.00;64.90
13589;DHT22;6865;52.552;13.434;2022-08-06T15:25:02;22.10;63.20
13589;DHT22;6865;52.552;13.434;2022-08-06T15:27:48;22.00;63.70
13589;DHT22;6865;52.552;13.434;2022-08-06T15:30:16;22.00;63.90
13589;DHT22;6865;52.552;13.434;2022-08-06T15:32:44;22.00;63.90
13589;DHT22;6865;52.552;13.434;2022-08-06T15:35:22;21.90;64.20
13589;DHT22;6865;52.552;13.434;2022-08-06T15:38:09;22.20;62.00
13589;DHT22;6865;52.552;13.434;2022-08-06T15:40:38;22.30;62.30
13589;DHT22;6865;52.552;13.434;2022-08-06T15:43:08;22.30;61.40
13589;DHT22;6865;52.552;13.434;2022-08-06T15:45:39;22.40;59.50
13589;DHT22;6865;52.552;13.434;2022-08-06T15:48:17;22.40;59.30
13589;DHT22;6865;52.552;13.434;2022-08-06T15:50:55;22.50;59.70
13589;DHT22;6865;52.552;13.434;2022-08-06T15:53:43;22.50;60.00
13589;DHT22;6865;52.552;13.434;2022-08-06T15:56:25;22.60;60.10
13589;DHT22;6865;52.552;13.434;2022-08-06T15:59:06;22.70;59.00
13589;DHT22;6865;52.552;13.434;2022-08-06T16:01:38;22.60;58.70
13589;DHT22;6865;52.552;13.434;2022-08-06T16:04:25;22.50;58.70
13589;DHT22;6865;52.552;13.434;2022-08-06T16:06:51;22.40;58.70
13589;DHT22;6865;52.552;13.434;2022-08-06T16:09:20;22.30;59.40
13589;DHT22;6865;52.552;13.434;2022-08-06T16:11:55;22.40;59.90
13589;DHT22;6865;52.552;13.434;2022-08-06T16:14:22;22.40;60.40
13589;DHT22;6865;52.552;13.434;2022-08-06T16:17:03;22.40;60.00
13589;DHT22;6865;52.552;13.434;2022-08-06T16:19:32;22.30;60.60
13589;DHT22;6865;52.552;13.434;2022-08-06T16:22:15;22.30;60.10
13589;DHT22;6865;52.552;13.434;2022-08-06T16:24:43;22.20;59.60
13589;DHT22;6865;52.552;13.434;2022-08-06T16:27:10;22.10;60.50
13589;DHT22;6865;52.552;13.434;2022-08-06T16:29:40;22.20;61.10
13589;DHT22;6865;52.552;13.434;2022-08-06T16:32:08;22.10;61.10
13589;DHT22;6865;52.552;13.434;2022-08-06T16:34:35;22.00;61.30
13589;DHT22;6865;52.552;13.434;2022-08-06T16:37:03;22.00;61.90
13589;DHT22;6865;52.552;13.434;2022-08-06T16:39:49;21.90;62.20
13589;DHT22;6865;52.552;13.434;2022-08-06T16:42:26;21.90;62.80
13589;DHT22;6865;52.552;13.434;2022-08-06T16:44:55;21.80;62.70
13589;DHT22;6865;52.552;13.434;2022-08-06T16:47:35;21.80;63.00
13589;DHT22;6865;52.552;13.434;2022-08-06T16:50:22;21.70;63.10
13589;DHT22;6865;52.552;13.434;2022-08-06T16:52:52;21.70;62.90
13589;DHT22;6865;52.552;13.434;2022-08-06T16:55:38;21.60;63.20
13589;DHT22;6865;52.552;13.434;2022-08-06T16:58:08;21.60;63.40
13589;DHT22;6865;52.552;13.434;2022-08-06T17:00:55;21.50;63.00
13589;DHT22;6865;52.552;13.434;2022-08-06T17:03:41;21.40;63.10
13589;DHT22;6865;52.552;13.434;2022-08-06T17:06:12;21.40;63.30
13589;DHT22;6865;52.552;13.434;2022-08-06T17:08:44;21.40;63.30
13589;DHT22;6865;52.552;13.434;2022-08-06T17:11:30;21.30;63.20
13589;DHT22;6865;52.552;13.434;2022-08-06T17:14:12;21.30;63.40